Cheikh El Mokrani — C6WD5 — position and weather

sailwx.info

Track history (hours):
 
Tides and Currents Weather Stations Pressure Air Temp Water Temp Dewpoint Dewpoint Depression Visibility Wind Speed Wind Dir Waves Ship Positions

Cheikh El Mokrani

Last reported at 2014-Aug-23 03:33 UTC. Time now 2014-Aug-29 10:24 UTC.
Position N 37°23' W 009°28'.

Length 220 m; draft 8 m.

Type: Ship (hazmat cat D). MMSI: 309979000.

Date/timePositionNaut miles runAvg speedWind from/ knotsBaromVisibWave heightAir tempDewpointWater temp
2014-Aug-23 03:33N 37°23' W 009°28'1616.0
2014-Aug-23 02:33N 37°07' W 009°23'1616.1
2014-Aug-23 01:33N 36°52' W 009°18'1515.4
2014-Aug-23 00:33N 36°42' W 009°03'1616.1
2014-Aug-22 23:33N 36°37' W 008°44'1615.7
2014-Aug-22 22:33N 36°33' W 008°25'1515.2
2014-Aug-22 21:33N 36°28' W 008°07'1715.3
2014-Aug-22 20:27N 36°22' W 007°47'12014.5
2014-Aug-22 12:12N 36°01' W 005°21'10713.8
2014-Aug-22 04:27N 36°08' W 003°10'1416.1
2014-Aug-22 03:33N 36°11' W 002°52'1716.1
2014-Aug-22 02:29N 36°14' W 002°31'1516.3
2014-Aug-22 01:33N 36°17' W 002°13'1616.0
2014-Aug-22 00:33N 36°20' W 001°53'1616.3
2014-Aug-21 23:33N 36°23' W 001°33'2216.5
2014-Aug-21 22:12N 36°27' W 001°06'1116.4
2014-Aug-21 21:32N 36°28' W 000°52'1616.2
2014-Aug-21 20:33N 36°31' W 000°33'1615.6
2014-Aug-21 19:33N 36°35' W 000°14'1515.5
2014-Aug-21 18:33N 36°37' E 000°05'1615.8
2014-Aug-21 17:33N 36°40' E 000°24'2116.7
2014-Aug-21 16:18N 36°44' E 000°50'7716.3
2014-Aug-21 11:33N 36°56' E 002°25'3616.9
2014-Aug-21 09:26N 37°00' E 003°10'1413.6
2014-Aug-21 08:24N 37°08' E 003°25'21416.6
2014-Aug-20 19:33N 37°13' E 007°53'1717.1
2014-Aug-20 18:33N 37°13' E 008°15'2116.7
2014-Aug-20 17:18N 37°13' E 008°41'1316.2
2014-Aug-20 16:32N 37°16' E 008°56'1716.3
2014-Aug-20 15:30N 37°23' E 009°15'1516.1
2014-Aug-20 14:33N 37°30' E 009°33'1615.5
2014-Aug-20 13:33N 37°35' E 009°51'1515.0
2014-Aug-20 12:33N 37°39' E 010°10'1515.2
2014-Aug-20 11:33N 37°36' E 010°28'8216.2
2014-Aug-20 06:31N 37°03' E 012°03'1616.6
2014-Aug-20 05:32N 36°56' E 012°21'1616.6
2014-Aug-20 04:33N 36°50' E 012°40'1716.6
2014-Aug-20 03:33N 36°44' E 012°59'1716.5
2014-Aug-20 02:31N 36°40' E 013°20'1616.4
2014-Aug-20 01:33N 36°37' E 013°39'1616.2
2014-Aug-20 00:33N 36°35' E 013°59'1616.1
2014-Aug-19 23:33N 36°32' E 014°19'1615.7
2014-Aug-19 22:33N 36°28' E 014°38'1616.1
2014-Aug-19 21:33N 36°23' E 014°57'1616.1
2014-Aug-19 20:33N 36°20' E 015°16'1615.9
2014-Aug-19 19:33N 36°19' E 015°36'39613.6
2014-Aug-18 14:21N 37°36' E 023°42'1215.2
2014-Aug-18 13:33N 37°47' E 023°36'1212.0
2014-Aug-18 12:33N 37°52' E 023°22'5 5.0
2014-Aug-18 11:28N 37°58' E 023°24'0 0.0
2014-Aug-18 10:32N 37°58' E 023°24'0 0.0
2014-Aug-18 09:30N 37°58' E 023°24'0 0.0
2014-Aug-18 08:08N 37°58' E 023°24'0 0.0
2014-Aug-18 07:20N 37°58' E 023°24'0 0.0
2014-Aug-18 06:26N 37°58' E 023°24'0 0.0
2014-Aug-18 05:04N 37°58' E 023°24'0 0.0
2014-Aug-18 00:05N 37°58' E 023°24'0 0.0
2014-Aug-17 17:06N 37°58' E 023°24'0 0.0
2014-Aug-17 16:30N 37°58' E 023°24'0 0.0
2014-Aug-17 15:32N 37°58' E 023°24'0 0.0
2014-Aug-17 14:32N 37°58' E 023°24'0 0.0
2014-Aug-17 13:33N 37°58' E 023°24'0 0.0
2014-Aug-17 12:32N 37°58' E 023°24'0 0.0
2014-Aug-17 11:31N 37°58' E 023°24'0 0.0
2014-Aug-17 10:33N 37°58' E 023°24'2 1.8
2014-Aug-17 09:33N 37°56' E 023°23'6 6.4
2014-Aug-17 08:33N 37°51' E 023°27'1211.7
2014-Aug-17 07:33N 37°48' E 023°41'1312.7
2014-Aug-17 06:33N 37°36' E 023°47'1414.0
2014-Aug-17 05:33N 37°22' E 023°46'1514.6
2014-Aug-17 04:33N 37°08' E 023°41'1514.7
2014-Aug-17 03:33N 36°54' E 023°35'1515.0
2014-Aug-17 02:33N 36°40' E 023°29'1515.0
2014-Aug-17 01:33N 36°25' E 023°23'2014.3
2014-Aug-17 00:10N 36°06' E 023°15'41516.1
2014-Aug-15 22:19N 36°26' E 014°41'1216.4
2014-Aug-15 21:33N 36°29' E 014°26'1616.4
2014-Aug-15 20:33N 36°33' E 014°06'1616.4
2014-Aug-15 19:33N 36°36' E 013°46'1616.4
2014-Aug-15 18:33N 36°40' E 013°26'1616.4
2014-Aug-15 17:33N 36°44' E 013°06'1616.5
2014-Aug-15 16:33N 36°47' E 012°46'1616.3
2014-Aug-15 15:33N 36°51' E 012°26'2316.0
2014-Aug-15 14:08N 36°60' E 011°60'1116.3
2014-Aug-15 13:28N 37°05' E 011°48'1816.0
2014-Aug-15 12:21N 37°14' E 011°29'1316.4
2014-Aug-15 11:33N 37°21' E 011°15'1616.2
2014-Aug-15 10:33N 37°26' E 010°55'1616.1
2014-Aug-15 09:33N 37°30' E 010°36'1716.3
2014-Aug-15 08:31N 37°34' E 010°15'255 5.9
2014-Aug-13 13:33N 37°06' E 004°57'1512.8
2014-Aug-13 12:23N 37°05' E 004°38'1214.1
2014-Aug-13 11:33N 37°05' E 004°23'3316.3
2014-Aug-13 09:32N 37°02' E 003°42'1716.9
2014-Aug-13 08:33N 36°60' E 003°22'1917.5
2014-Aug-13 07:30N 36°57' E 002°59'1616.3
2014-Aug-13 06:32N 36°54' E 002°40'1616.2
2014-Aug-13 05:31N 36°51' E 002°19'1616.5
2014-Aug-13 04:33N 36°48' E 001°60'  
Track history (hours):
 
Tides and Currents Weather Stations Pressure Air Temp Water Temp Dewpoint Dewpoint Depression Visibility Wind Speed Wind Dir Waves Ship Positions

Cheikh El Mokrani

Last reported at 2014-Aug-23 03:33 UTC. Time now 2014-Aug-29 10:24 UTC.
Position N 37°23' W 009°28'.

Length 220 m; draft 8 m.

Type: Ship (hazmat cat D). MMSI: 309979000.

Date/timePositionNaut miles runAvg speedWind from/ knotsBaromVisibWave heightAir tempDewpointWater temp
2014-Aug-23 03:33N 37°23' W 009°28'1616.0
2014-Aug-23 02:33N 37°07' W 009°23'1616.1
2014-Aug-23 01:33N 36°52' W 009°18'1515.4
2014-Aug-23 00:33N 36°42' W 009°03'1616.1
2014-Aug-22 23:33N 36°37' W 008°44'1615.7
2014-Aug-22 22:33N 36°33' W 008°25'1515.2
2014-Aug-22 21:33N 36°28' W 008°07'1715.3
2014-Aug-22 20:27N 36°22' W 007°47'12014.5
2014-Aug-22 12:12N 36°01' W 005°21'10713.8
2014-Aug-22 04:27N 36°08' W 003°10'1416.1
2014-Aug-22 03:33N 36°11' W 002°52'1716.1
2014-Aug-22 02:29N 36°14' W 002°31'1516.3
2014-Aug-22 01:33N 36°17' W 002°13'1616.0
2014-Aug-22 00:33N 36°20' W 001°53'1616.3
2014-Aug-21 23:33N 36°23' W 001°33'2216.5
2014-Aug-21 22:12N 36°27' W 001°06'1116.4
2014-Aug-21 21:32N 36°28' W 000°52'1616.2
2014-Aug-21 20:33N 36°31' W 000°33'1615.6
2014-Aug-21 19:33N 36°35' W 000°14'1515.5
2014-Aug-21 18:33N 36°37' E 000°05'1615.8
2014-Aug-21 17:33N 36°40' E 000°24'2116.7
2014-Aug-21 16:18N 36°44' E 000°50'7716.3
2014-Aug-21 11:33N 36°56' E 002°25'3616.9
2014-Aug-21 09:26N 37°00' E 003°10'1413.6
2014-Aug-21 08:24N 37°08' E 003°25'21416.6
2014-Aug-20 19:33N 37°13' E 007°53'1717.1
2014-Aug-20 18:33N 37°13' E 008°15'2116.7
2014-Aug-20 17:18N 37°13' E 008°41'1316.2
2014-Aug-20 16:32N 37°16' E 008°56'1716.3
2014-Aug-20 15:30N 37°23' E 009°15'1516.1
2014-Aug-20 14:33N 37°30' E 009°33'1615.5
2014-Aug-20 13:33N 37°35' E 009°51'1515.0
2014-Aug-20 12:33N 37°39' E 010°10'1515.2
2014-Aug-20 11:33N 37°36' E 010°28'8216.2
2014-Aug-20 06:31N 37°03' E 012°03'1616.6
2014-Aug-20 05:32N 36°56' E 012°21'1616.6
2014-Aug-20 04:33N 36°50' E 012°40'1716.6
2014-Aug-20 03:33N 36°44' E 012°59'1716.5
2014-Aug-20 02:31N 36°40' E 013°20'1616.4
2014-Aug-20 01:33N 36°37' E 013°39'1616.2
2014-Aug-20 00:33N 36°35' E 013°59'1616.1
2014-Aug-19 23:33N 36°32' E 014°19'1615.7
2014-Aug-19 22:33N 36°28' E 014°38'1616.1
2014-Aug-19 21:33N 36°23' E 014°57'1616.1
2014-Aug-19 20:33N 36°20' E 015°16'1615.9
2014-Aug-19 19:33N 36°19' E 015°36'39613.6
2014-Aug-18 14:21N 37°36' E 023°42'1215.2
2014-Aug-18 13:33N 37°47' E 023°36'1212.0
2014-Aug-18 12:33N 37°52' E 023°22'5 5.0
2014-Aug-18 11:28N 37°58' E 023°24'0 0.0
2014-Aug-18 10:32N 37°58' E 023°24'0 0.0
2014-Aug-18 09:30N 37°58' E 023°24'0 0.0
2014-Aug-18 08:08N 37°58' E 023°24'0 0.0
2014-Aug-18 07:20N 37°58' E 023°24'0 0.0
2014-Aug-18 06:26N 37°58' E 023°24'0 0.0
2014-Aug-18 05:04N 37°58' E 023°24'0 0.0
2014-Aug-18 00:05N 37°58' E 023°24'0 0.0
2014-Aug-17 17:06N 37°58' E 023°24'0 0.0
2014-Aug-17 16:30N 37°58' E 023°24'0 0.0
2014-Aug-17 15:32N 37°58' E 023°24'0 0.0
2014-Aug-17 14:32N 37°58' E 023°24'0 0.0
2014-Aug-17 13:33N 37°58' E 023°24'0 0.0
2014-Aug-17 12:32N 37°58' E 023°24'0 0.0
2014-Aug-17 11:31N 37°58' E 023°24'0 0.0
2014-Aug-17 10:33N 37°58' E 023°24'2 1.8
2014-Aug-17 09:33N 37°56' E 023°23'6 6.4
2014-Aug-17 08:33N 37°51' E 023°27'1211.7
2014-Aug-17 07:33N 37°48' E 023°41'1312.7
2014-Aug-17 06:33N 37°36' E 023°47'1414.0
2014-Aug-17 05:33N 37°22' E 023°46'1514.6
2014-Aug-17 04:33N 37°08' E 023°41'1514.7
2014-Aug-17 03:33N 36°54' E 023°35'1515.0
2014-Aug-17 02:33N 36°40' E 023°29'1515.0
2014-Aug-17 01:33N 36°25' E 023°23'2014.3
2014-Aug-17 00:10N 36°06' E 023°15'41516.1
2014-Aug-15 22:19N 36°26' E 014°41'1216.4
2014-Aug-15 21:33N 36°29' E 014°26'1616.4
2014-Aug-15 20:33N 36°33' E 014°06'1616.4
2014-Aug-15 19:33N 36°36' E 013°46'1616.4
2014-Aug-15 18:33N 36°40' E 013°26'1616.4
2014-Aug-15 17:33N 36°44' E 013°06'1616.5
2014-Aug-15 16:33N 36°47' E 012°46'1616.3
2014-Aug-15 15:33N 36°51' E 012°26'2316.0
2014-Aug-15 14:08N 36°60' E 011°60'1116.3
2014-Aug-15 13:28N 37°05' E 011°48'1816.0
2014-Aug-15 12:21N 37°14' E 011°29'1316.4
2014-Aug-15 11:33N 37°21' E 011°15'1616.2
2014-Aug-15 10:33N 37°26' E 010°55'1616.1
2014-Aug-15 09:33N 37°30' E 010°36'1716.3
2014-Aug-15 08:31N 37°34' E 010°15'255 5.9
2014-Aug-13 13:33N 37°06' E 004°57'1512.8
2014-Aug-13 12:23N 37°05' E 004°38'1214.1
2014-Aug-13 11:33N 37°05' E 004°23'3316.3
2014-Aug-13 09:32N 37°02' E 003°42'1716.9
2014-Aug-13 08:33N 36°60' E 003°22'1917.5
2014-Aug-13 07:30N 36°57' E 002°59'1616.3
2014-Aug-13 06:32N 36°54' E 002°40'1616.2
2014-Aug-13 05:31N 36°51' E 002°19'1616.5
2014-Aug-13 04:33N 36°48' E 001°60'  

Dump ship's entire track history